createdAt,value
2023-05-10T00:00:06.049Z,99.90
2023-05-10T00:02:39.887Z,99.90
2023-05-10T00:05:06.671Z,99.90
2023-05-10T00:07:35.487Z,99.90
2023-05-10T00:10:02.141Z,99.90
2023-05-10T00:12:28.732Z,99.90
2023-05-10T00:14:55.357Z,99.90
2023-05-10T00:17:23.176Z,99.90
2023-05-10T00:19:49.817Z,99.90
2023-05-10T00:22:16.401Z,99.90
2023-05-10T00:24:43.063Z,99.90
2023-05-10T00:27:30.430Z,99.90
2023-05-10T00:29:57.132Z,99.90
2023-05-10T00:32:23.843Z,99.90
2023-05-10T00:34:50.507Z,99.90
2023-05-10T00:37:18.214Z,99.90
2023-05-10T00:39:44.810Z,99.90
2023-05-10T00:42:11.748Z,99.90
2023-05-10T00:44:38.674Z,99.90
2023-05-10T00:47:26.423Z,99.90
2023-05-10T00:49:53.092Z,99.90
2023-05-10T00:52:19.654Z,99.90
2023-05-10T00:54:47.568Z,99.90
2023-05-10T00:57:15.869Z,99.90
2023-05-10T00:59:42.511Z,99.90
2023-05-10T01:02:09.148Z,99.90
2023-05-10T01:04:36.465Z,99.90
2023-05-10T01:07:04.648Z,99.90
2023-05-10T01:09:31.241Z,99.90
2023-05-10T01:11:57.884Z,99.90
2023-05-10T01:14:24.566Z,99.90
2023-05-10T01:16:52.396Z,99.90
2023-05-10T01:19:19.142Z,99.90
2023-05-10T01:21:45.744Z,99.90
2023-05-10T01:24:12.335Z,99.90
2023-05-10T01:26:40.046Z,99.90
2023-05-10T01:29:06.945Z,99.90
2023-05-10T01:31:33.657Z,99.90
2023-05-10T01:34:00.304Z,99.90
2023-05-10T01:36:45.811Z,99.90
2023-05-10T01:39:12.425Z,99.90
2023-05-10T01:41:39.074Z,99.90
2023-05-10T01:44:05.717Z,99.90
2023-05-10T01:49:36.844Z,99.90
2023-05-10T01:52:03.413Z,99.90
2023-05-10T01:54:30.035Z,99.90
2023-05-10T01:56:56.639Z,99.90
2023-05-10T01:59:23.334Z,99.90
2023-05-10T02:01:49.978Z,99.90
2023-05-10T02:04:17.142Z,99.90
2023-05-10T02:07:02.891Z,99.90
2023-05-10T02:09:29.535Z,99.90
2023-05-10T02:11:56.303Z,99.90
2023-05-10T02:14:23.118Z,99.90
2023-05-10T02:16:51.632Z,99.90
2023-05-10T02:19:18.277Z,99.90
2023-05-10T02:21:44.868Z,99.90
2023-05-10T02:24:11.505Z,99.90
2023-05-10T02:26:38.309Z,99.90
2023-05-10T02:29:04.912Z,99.90
2023-05-10T02:31:31.494Z,99.90
2023-05-10T02:33:58.177Z,99.90
2023-05-10T02:36:28.388Z,99.90
2023-05-10T02:38:55.006Z,99.90
2023-05-10T02:41:23.657Z,99.90
2023-05-10T02:43:50.248Z,99.90
2023-05-10T02:46:19.095Z,99.90
2023-05-10T02:48:45.733Z,99.90
2023-05-10T02:51:12.377Z,99.90
2023-05-10T02:53:38.982Z,99.90
2023-05-10T02:56:05.653Z,99.90
2023-05-10T02:58:32.305Z,99.90
2023-05-10T03:00:58.936Z,99.90
2023-05-10T03:03:25.599Z,99.90
2023-05-10T03:06:12.026Z,99.90
2023-05-10T03:08:38.778Z,99.90
2023-05-10T03:11:07.155Z,99.90
2023-05-10T03:13:36.323Z,99.90
2023-05-10T03:16:05.314Z,99.90
2023-05-10T03:18:31.960Z,99.90
2023-05-10T03:20:59.049Z,99.90
2023-05-10T03:23:25.767Z,99.90
2023-05-10T03:25:52.694Z,99.90
2023-05-10T03:28:19.360Z,99.90
2023-05-10T03:30:46.372Z,99.90
2023-05-10T03:33:14.202Z,99.90
2023-05-10T03:35:46.774Z,99.90
2023-05-10T03:38:14.409Z,99.90
2023-05-10T03:40:41.243Z,99.90
2023-05-10T03:43:08.458Z,99.90
2023-05-10T03:45:36.580Z,99.90
2023-05-10T03:48:03.720Z,99.90
2023-05-10T03:50:30.736Z,99.90
2023-05-10T03:52:58.274Z,99.90
2023-05-10T03:55:24.969Z,99.90
2023-05-10T03:57:51.716Z,99.90
2023-05-10T04:00:18.544Z,99.90
2023-05-10T04:02:49.354Z,99.90
2023-05-10T04:05:19.228Z,99.90
2023-05-10T04:07:50.213Z,99.90
2023-05-10T04:10:17.585Z,99.90
2023-05-10T04:12:44.482Z,99.90
2023-05-10T04:15:11.276Z,99.90
2023-05-10T04:17:39.161Z,99.90
2023-05-10T04:20:05.988Z,99.90
2023-05-10T04:22:32.777Z,99.90
2023-05-10T04:24:59.352Z,99.90
2023-05-10T04:27:44.581Z,99.90
2023-05-10T04:30:11.606Z,99.90
2023-05-10T04:32:38.362Z,99.90
2023-05-10T04:35:05.702Z,99.90
2023-05-10T04:37:53.426Z,99.90
2023-05-10T04:40:20.670Z,99.90
2023-05-10T04:42:47.473Z,99.90
2023-05-10T04:45:15.600Z,99.90
2023-05-10T04:47:42.512Z,99.90
2023-05-10T04:50:09.164Z,99.90
2023-05-10T04:52:35.743Z,99.90
2023-05-10T04:55:02.352Z,99.90
2023-05-10T04:57:30.065Z,99.90
2023-05-10T04:59:56.718Z,99.90
2023-05-10T05:02:24.635Z,99.90
2023-05-10T05:04:51.248Z,99.90
2023-05-10T05:07:19.012Z,99.90
2023-05-10T05:09:45.586Z,99.90
2023-05-10T05:12:15.029Z,99.90
2023-05-10T05:14:42.222Z,99.90
2023-05-10T05:17:11.014Z,99.90
2023-05-10T05:19:37.868Z,99.90
2023-05-10T05:22:04.481Z,99.90
2023-05-10T05:24:31.100Z,99.90
2023-05-10T05:27:17.321Z,99.90
2023-05-10T05:29:43.926Z,99.90
2023-05-10T05:32:11.467Z,99.90
2023-05-10T05:34:38.087Z,99.90
2023-05-10T05:37:04.797Z,99.90
2023-05-10T05:39:31.368Z,99.90
2023-05-10T05:41:57.988Z,99.90
2023-05-10T05:44:24.703Z,99.90
2023-05-10T05:46:52.464Z,99.90
2023-05-10T05:49:19.126Z,99.90
2023-05-10T05:51:45.955Z,99.90
2023-05-10T05:54:12.546Z,99.90
2023-05-10T05:56:59.824Z,99.90
2023-05-10T05:59:27.807Z,99.90
2023-05-10T06:01:54.426Z,99.90
2023-05-10T06:04:21.207Z,99.90
2023-05-10T06:06:49.026Z,99.90
2023-05-10T06:09:15.909Z,99.90
2023-05-10T06:11:42.547Z,99.90
2023-05-10T06:14:09.276Z,99.90
2023-05-10T06:16:36.106Z,99.90
2023-05-10T06:19:03.209Z,99.90
2023-05-10T06:21:29.876Z,99.90
2023-05-10T06:23:56.767Z,99.90
2023-05-10T06:26:23.390Z,99.90
2023-05-10T06:28:50.023Z,99.90
2023-05-10T06:31:17.078Z,99.90
2023-05-10T06:33:43.759Z,99.90
2023-05-10T06:36:10.392Z,99.90
2023-05-10T06:38:37.097Z,99.90
2023-05-10T06:41:04.223Z,99.90
2023-05-10T06:43:30.836Z,99.90
2023-05-10T06:45:58.587Z,99.90
2023-05-10T06:48:25.337Z,99.90
2023-05-10T06:50:51.936Z,99.90
2023-05-10T06:53:18.662Z,99.90
2023-05-10T06:55:45.279Z,99.90
2023-05-10T06:58:11.992Z,99.90
2023-05-10T07:00:44.540Z,99.90
2023-05-10T07:03:11.681Z,99.90
2023-05-10T07:05:39.622Z,99.90
2023-05-10T07:08:06.427Z,99.90
2023-05-10T07:10:33.087Z,99.90
2023-05-10T07:12:59.844Z,99.90
2023-05-10T07:15:26.507Z,99.90
2023-05-10T07:17:53.313Z,99.90
2023-05-10T07:20:20.046Z,99.90
2023-05-10T07:22:46.651Z,99.90
2023-05-10T07:25:13.284Z,99.90
2023-05-10T07:27:39.921Z,99.90
2023-05-10T07:30:06.568Z,99.90
2023-05-10T07:32:33.324Z,99.90
2023-05-10T07:35:00.823Z,99.90
2023-05-10T07:37:27.472Z,99.90
2023-05-10T07:39:54.063Z,99.90
2023-05-10T07:42:20.685Z,99.90
2023-05-10T07:44:48.164Z,99.90
2023-05-10T07:47:14.926Z,99.90
2023-05-10T07:49:41.748Z,99.90
2023-05-10T07:52:08.442Z,99.90
2023-05-10T07:54:35.084Z,99.90
2023-05-10T07:57:02.049Z,99.90
2023-05-10T07:59:28.786Z,99.90
2023-05-10T08:01:55.826Z,99.90
2023-05-10T08:04:23.182Z,99.90
2023-05-10T08:06:50.072Z,99.90
2023-05-10T08:09:16.689Z,99.90
2023-05-10T08:11:43.308Z,99.90
2023-05-10T08:14:10.014Z,99.90
2023-05-10T08:16:38.961Z,99.90
2023-05-10T08:19:05.805Z,99.90
2023-05-10T08:21:32.806Z,99.90
2023-05-10T08:23:59.513Z,99.90
2023-05-10T08:26:26.982Z,99.90
2023-05-10T08:28:53.681Z,99.90
2023-05-10T08:31:20.441Z,99.90
2023-05-10T08:33:47.090Z,99.90
2023-05-10T08:36:15.246Z,99.90
2023-05-10T08:38:41.971Z,99.90
2023-05-10T08:41:08.682Z,99.90
2023-05-10T08:43:35.335Z,99.90
2023-05-10T08:46:03.811Z,99.90
2023-05-10T08:48:30.588Z,99.90
2023-05-10T08:50:57.175Z,99.90
2023-05-10T08:53:23.815Z,99.90
2023-05-10T08:55:50.542Z,99.90
2023-05-10T08:58:17.269Z,99.90
2023-05-10T09:00:44.021Z,99.90
2023-05-10T09:03:10.705Z,99.90
2023-05-10T09:05:39.806Z,99.90
2023-05-10T09:08:06.578Z,99.90
2023-05-10T09:10:33.255Z,99.90
2023-05-10T09:12:59.916Z,99.90
2023-05-10T09:15:26.580Z,99.90
2023-05-10T09:17:53.291Z,99.90
2023-05-10T09:20:19.979Z,99.90
2023-05-10T09:22:46.578Z,99.90
2023-05-10T09:25:13.352Z,99.90
2023-05-10T09:27:40.088Z,99.90
2023-05-10T09:30:07.477Z,99.90
2023-05-10T09:32:34.116Z,99.90
2023-05-10T09:35:00.774Z,99.90
2023-05-10T09:37:27.338Z,99.90
2023-05-10T09:39:53.999Z,99.90
2023-05-10T09:42:20.703Z,99.90
2023-05-10T09:44:47.485Z,99.90
2023-05-10T09:47:14.145Z,99.90
2023-05-10T09:49:41.479Z,99.90
2023-05-10T09:52:08.160Z,99.90
2023-05-10T09:54:34.935Z,99.90
2023-05-10T09:57:01.699Z,99.90
2023-05-10T09:59:28.441Z,99.90
2023-05-10T10:01:55.302Z,99.90
2023-05-10T10:04:22.438Z,99.90
2023-05-10T10:06:49.127Z,99.90
2023-05-10T10:09:15.727Z,99.90
2023-05-10T10:11:42.457Z,99.90
2023-05-10T10:14:09.120Z,99.90
2023-05-10T10:16:35.941Z,99.90
2023-05-10T10:19:02.840Z,99.90
2023-05-10T10:21:29.583Z,99.90
2023-05-10T10:23:57.177Z,99.90
2023-05-10T10:26:23.911Z,99.90
2023-05-10T10:28:50.588Z,99.90
2023-05-10T10:31:17.233Z,99.90
2023-05-10T10:33:44.486Z,99.90
2023-05-10T10:36:12.426Z,99.90
2023-05-10T10:38:39.641Z,99.90
2023-05-10T10:41:06.274Z,99.90
2023-05-10T10:43:32.916Z,99.90
2023-05-10T10:45:59.625Z,99.90
2023-05-10T10:48:26.270Z,99.90
2023-05-10T10:50:53.081Z,99.90
2023-05-10T10:53:19.766Z,99.90
2023-05-10T10:55:46.413Z,99.90
2023-05-10T10:58:13.204Z,99.90
2023-05-10T11:00:41.954Z,99.90
2023-05-10T11:03:08.860Z,99.90
2023-05-10T11:05:36.448Z,99.90
2023-05-10T11:08:03.522Z,99.90
2023-05-10T11:10:30.115Z,99.90
2023-05-10T11:12:56.813Z,99.90
2023-05-10T11:15:23.527Z,99.90
2023-05-10T11:17:53.178Z,99.90
2023-05-10T11:20:24.155Z,99.90
2023-05-10T11:22:51.777Z,99.90
2023-05-10T11:25:18.418Z,99.90
2023-05-10T11:27:46.363Z,99.90
2023-05-10T11:30:13.083Z,99.90
2023-05-10T11:32:39.869Z,99.90
2023-05-10T11:35:06.454Z,99.90
2023-05-10T11:37:35.283Z,99.90
2023-05-10T11:40:01.964Z,98.40
2023-05-10T11:42:28.594Z,99.90
2023-05-10T11:44:55.484Z,98.00
2023-05-10T11:47:22.318Z,98.40
2023-05-10T11:49:48.936Z,97.20
2023-05-10T11:52:15.625Z,93.40
2023-05-10T11:54:42.209Z,95.40
2023-05-10T11:57:09.981Z,92.90
2023-05-10T11:59:36.575Z,91.80
2023-05-10T12:02:04.273Z,90.70
2023-05-10T12:04:31.299Z,90.40
2023-05-10T12:06:59.206Z,90.30
2023-05-10T12:09:39.602Z,88.20
2023-05-10T12:12:10.107Z,81.00
2023-05-10T12:14:36.769Z,81.20
2023-05-10T12:17:05.688Z,84.30
2023-05-10T12:19:32.290Z,83.90
2023-05-10T12:21:58.886Z,84.90
2023-05-10T12:24:26.375Z,85.00
2023-05-10T12:26:54.224Z,86.50
2023-05-10T12:29:21.165Z,91.10
2023-05-10T12:31:47.756Z,90.80
2023-05-10T12:34:14.354Z,91.10
2023-05-10T12:36:42.204Z,91.90
2023-05-10T12:39:08.814Z,93.40
2023-05-10T12:41:35.486Z,94.00
2023-05-10T12:44:02.127Z,93.10
2023-05-10T12:46:33.249Z,93.20
2023-05-10T12:49:08.643Z,93.60
2023-05-10T12:51:36.324Z,93.50
2023-05-10T12:54:02.930Z,92.60
2023-05-10T12:56:31.788Z,93.80
2023-05-10T12:58:58.436Z,94.40
2023-05-10T13:01:25.157Z,96.10
2023-05-10T13:03:52.122Z,95.10
2023-05-10T13:06:18.865Z,95.70
2023-05-10T13:08:45.672Z,97.40
2023-05-10T13:11:12.400Z,98.30
2023-05-10T13:13:39.174Z,97.70
2023-05-10T13:16:05.946Z,99.70
2023-05-10T13:18:32.560Z,98.40
2023-05-10T13:20:59.295Z,98.00
2023-05-10T13:23:25.984Z,99.20
2023-05-10T13:25:52.839Z,97.90
2023-05-10T13:28:19.419Z,98.00
2023-05-10T13:30:46.054Z,97.00
2023-05-10T13:33:12.652Z,96.50
2023-05-10T13:35:40.401Z,97.00
2023-05-10T13:38:08.978Z,97.60
2023-05-10T13:40:36.846Z,97.60
2023-05-10T13:43:03.533Z,96.30
2023-05-10T13:45:30.196Z,98.50
2023-05-10T13:47:56.830Z,97.30
2023-05-10T13:50:23.519Z,94.30
2023-05-10T13:52:50.147Z,94.00
2023-05-10T13:55:17.088Z,94.30
2023-05-10T13:57:44.213Z,99.20
2023-05-10T14:00:10.827Z,99.90
2023-05-10T14:02:37.516Z,99.90
2023-05-10T14:05:04.343Z,99.90
2023-05-10T14:07:31.647Z,99.90
2023-05-10T14:09:58.422Z,99.90
2023-05-10T14:12:25.078Z,99.90
2023-05-10T14:14:51.768Z,99.90
2023-05-10T14:17:18.535Z,99.90
2023-05-10T14:19:45.415Z,99.90
2023-05-10T14:22:12.060Z,99.90
2023-05-10T14:24:38.768Z,99.90
2023-05-10T14:27:05.461Z,99.90
2023-05-10T14:29:32.111Z,99.90
2023-05-10T14:31:58.764Z,99.90
2023-05-10T14:34:25.501Z,99.90
2023-05-10T14:36:53.776Z,99.90
2023-05-10T14:39:20.415Z,99.90
2023-05-10T14:41:48.095Z,99.90
2023-05-10T14:44:16.304Z,99.90
2023-05-10T14:46:42.938Z,99.90
2023-05-10T14:49:09.530Z,99.90
2023-05-10T14:51:37.892Z,99.90
2023-05-10T14:54:04.678Z,99.90
2023-05-10T14:56:31.348Z,99.90
2023-05-10T14:58:58.247Z,99.90
2023-05-10T15:01:25.471Z,99.90
2023-05-10T15:03:52.807Z,99.90
2023-05-10T15:06:20.249Z,99.90
2023-05-10T15:08:46.907Z,99.90
2023-05-10T15:11:13.551Z,99.90
2023-05-10T15:13:40.502Z,99.90
2023-05-10T15:16:07.192Z,99.90
2023-05-10T15:18:34.116Z,99.90
2023-05-10T15:21:00.721Z,99.90
2023-05-10T15:23:27.650Z,99.90
2023-05-10T15:25:56.830Z,99.90
2023-05-10T15:28:23.654Z,99.90
2023-05-10T15:30:50.276Z,99.90
2023-05-10T15:33:16.933Z,99.90
2023-05-10T15:35:45.544Z,99.90
2023-05-10T15:38:12.578Z,99.90
2023-05-10T15:40:39.259Z,99.90
2023-05-10T15:43:08.901Z,99.90
2023-05-10T15:45:37.436Z,99.90
2023-05-10T15:48:04.491Z,99.90
2023-05-10T15:50:31.163Z,99.90
2023-05-10T15:52:57.749Z,99.90
2023-05-10T15:55:24.369Z,99.90
2023-05-10T15:57:51.362Z,99.90
2023-05-10T16:00:17.990Z,99.90
2023-05-10T16:02:44.663Z,99.90
2023-05-10T16:05:11.488Z,99.90
2023-05-10T16:07:41.140Z,99.90
2023-05-10T16:10:09.123Z,99.90
2023-05-10T16:12:58.581Z,99.90
2023-05-10T16:15:26.073Z,99.90
2023-05-10T16:17:52.943Z,99.90
2023-05-10T16:20:25.974Z,99.90
2023-05-10T16:22:53.454Z,99.90
2023-05-10T16:25:26.060Z,99.90
2023-05-10T16:27:53.395Z,99.90
2023-05-10T16:30:20.877Z,99.90
2023-05-10T16:32:49.871Z,99.90
2023-05-10T16:35:16.895Z,99.90
2023-05-10T16:37:43.826Z,99.90
2023-05-10T16:40:10.560Z,99.90
2023-05-10T16:42:37.506Z,99.90
2023-05-10T16:45:07.678Z,99.90
2023-05-10T16:47:34.412Z,99.90
2023-05-10T16:50:02.185Z,99.90
2023-05-10T16:52:28.870Z,99.90
2023-05-10T16:54:55.713Z,99.90
2023-05-10T16:57:23.401Z,99.90
2023-05-10T16:59:50.032Z,99.90
2023-05-10T17:02:16.941Z,99.90
2023-05-10T17:04:43.742Z,99.90
2023-05-10T17:07:13.154Z,99.90
2023-05-10T17:09:39.817Z,99.90
2023-05-10T17:12:06.546Z,99.90
2023-05-10T17:14:33.140Z,99.90
2023-05-10T17:17:00.327Z,99.90
2023-05-10T17:19:27.087Z,99.90
2023-05-10T17:21:53.728Z,99.90
2023-05-10T17:24:20.544Z,99.90
2023-05-10T17:26:47.189Z,99.90
2023-05-10T17:29:16.872Z,99.90
2023-05-10T17:31:43.663Z,99.90
2023-05-10T17:34:10.947Z,99.90
2023-05-10T17:36:39.173Z,99.90
2023-05-10T17:39:06.172Z,99.90
2023-05-10T17:41:32.831Z,99.90
2023-05-10T17:43:59.462Z,99.90
2023-05-10T17:46:26.216Z,99.90
2023-05-10T17:48:53.024Z,99.90
2023-05-10T17:51:20.646Z,99.90
2023-05-10T17:53:47.355Z,99.90
2023-05-10T17:56:13.980Z,99.90
2023-05-10T17:58:40.684Z,99.90
2023-05-10T18:01:07.620Z,99.90
2023-05-10T18:03:35.915Z,99.90
2023-05-10T18:06:02.620Z,99.90
2023-05-10T18:08:30.475Z,99.90
2023-05-10T18:10:57.155Z,99.90
2023-05-10T18:13:25.506Z,99.90
2023-05-10T18:15:52.335Z,99.90
2023-05-10T18:18:18.943Z,99.90
2023-05-10T18:20:46.384Z,99.90
2023-05-10T18:23:14.190Z,99.90
2023-05-10T18:25:40.824Z,99.90
2023-05-10T18:28:08.270Z,99.90
2023-05-10T18:30:35.113Z,99.90
2023-05-10T18:33:02.081Z,99.90
2023-05-10T18:35:28.813Z,99.90
2023-05-10T18:37:56.126Z,99.90
2023-05-10T18:40:22.851Z,99.90
2023-05-10T18:42:50.583Z,99.90
2023-05-10T18:45:17.464Z,99.90
2023-05-10T18:47:46.477Z,99.90
2023-05-10T18:50:13.357Z,99.90
2023-05-10T18:52:40.016Z,99.90
2023-05-10T18:55:06.681Z,99.90
2023-05-10T18:57:40.959Z,99.90
2023-05-10T19:00:10.108Z,99.90
2023-05-10T19:02:36.766Z,99.90
2023-05-10T19:05:03.495Z,99.90
2023-05-10T19:07:31.240Z,99.90
2023-05-10T19:09:58.257Z,99.90
2023-05-10T19:12:24.916Z,99.90
2023-05-10T19:14:51.568Z,99.90
2023-05-10T19:17:19.154Z,99.90
2023-05-10T19:19:45.728Z,99.90
2023-05-10T19:22:12.439Z,99.90
2023-05-10T19:24:39.221Z,99.90
2023-05-10T19:27:06.967Z,99.90
2023-05-10T19:29:33.628Z,99.90
2023-05-10T19:32:00.745Z,99.90
2023-05-10T19:34:28.219Z,99.90
2023-05-10T19:36:56.183Z,99.90
2023-05-10T19:39:23.116Z,99.90
2023-05-10T19:41:50.036Z,99.90
2023-05-10T19:44:16.699Z,99.90
2023-05-10T19:46:43.347Z,99.90
2023-05-10T19:49:10.020Z,99.90
2023-05-10T19:51:36.590Z,99.90
2023-05-10T19:54:03.686Z,99.90
2023-05-10T19:56:30.622Z,99.90
2023-05-10T19:58:57.218Z,99.90
2023-05-10T20:01:23.959Z,99.90
2023-05-10T20:03:51.152Z,99.90
2023-05-10T20:06:17.988Z,99.90
2023-05-10T20:08:44.664Z,99.90
2023-05-10T20:11:12.051Z,99.90
2023-05-10T20:13:38.633Z,99.90
2023-05-10T20:16:06.146Z,99.90
2023-05-10T20:18:33.315Z,99.90
2023-05-10T20:21:00.371Z,99.90
2023-05-10T20:23:27.025Z,99.90
2023-05-10T20:25:54.530Z,99.90
2023-05-10T20:28:21.099Z,99.90
2023-05-10T20:30:47.736Z,99.90
2023-05-10T20:33:17.517Z,99.90
2023-05-10T20:35:45.192Z,99.90
2023-05-10T20:38:11.823Z,99.90
2023-05-10T20:40:38.493Z,99.90
2023-05-10T20:43:08.128Z,99.90
2023-05-10T20:45:36.371Z,99.90
2023-05-10T20:48:04.091Z,99.90
2023-05-10T20:50:30.894Z,99.90
2023-05-10T20:52:57.744Z,99.90
2023-05-10T20:55:24.427Z,99.90
2023-05-10T20:57:51.506Z,99.90
2023-05-10T21:00:18.451Z,99.90
2023-05-10T21:02:45.319Z,99.90
2023-05-10T21:05:12.075Z,99.90
2023-05-10T21:07:39.412Z,99.90
2023-05-10T21:10:06.053Z,99.90
2023-05-10T21:12:32.702Z,99.90
2023-05-10T21:14:59.402Z,99.90
2023-05-10T21:17:26.076Z,99.90
2023-05-10T21:19:52.809Z,99.90
2023-05-10T21:22:19.403Z,99.90
2023-05-10T21:24:46.236Z,99.90
2023-05-10T21:27:13.012Z,99.90
2023-05-10T21:29:39.777Z,99.90
2023-05-10T21:32:06.505Z,99.90
2023-05-10T21:34:33.684Z,99.90
2023-05-10T21:37:00.644Z,99.90
2023-05-10T21:39:27.212Z,99.90
2023-05-10T21:41:53.890Z,99.90
2023-05-10T21:44:21.036Z,99.90
2023-05-10T21:46:47.794Z,99.90
2023-05-10T21:49:14.406Z,99.90
2023-05-10T21:51:41.184Z,99.90
2023-05-10T21:54:07.889Z,99.90
2023-05-10T21:56:34.474Z,99.90
2023-05-10T21:59:01.082Z,99.90
2023-05-10T22:01:27.815Z,99.90
2023-05-10T22:03:54.506Z,99.90
2023-05-10T22:06:21.251Z,99.90
2023-05-10T22:08:47.856Z,99.90
2023-05-10T22:11:14.422Z,99.90
2023-05-10T22:13:41.009Z,99.90
2023-05-10T22:16:07.656Z,99.90
2023-05-10T22:18:34.273Z,99.90
2023-05-10T22:21:00.924Z,99.90
2023-05-10T22:23:27.561Z,99.90
2023-05-10T22:25:54.167Z,99.90
2023-05-10T22:28:21.221Z,99.90
2023-05-10T22:30:48.417Z,99.90
2023-05-10T22:33:15.026Z,99.90
2023-05-10T22:35:41.657Z,99.90
2023-05-10T22:38:08.261Z,99.90
2023-05-10T22:40:34.856Z,99.90
2023-05-10T22:43:01.530Z,99.90
2023-05-10T22:45:28.118Z,99.90
2023-05-10T22:47:54.741Z,99.90
2023-05-10T22:50:21.423Z,99.90
2023-05-10T22:52:48.156Z,99.90
2023-05-10T22:55:14.788Z,99.90
2023-05-10T22:57:41.386Z,99.90
2023-05-10T23:00:08.093Z,99.90
2023-05-10T23:02:34.706Z,99.90
2023-05-10T23:05:01.338Z,99.90
2023-05-10T23:07:28.100Z,99.90
2023-05-10T23:09:54.696Z,99.90
2023-05-10T23:12:21.348Z,99.90
2023-05-10T23:14:47.969Z,99.90
2023-05-10T23:17:15.873Z,99.90
2023-05-10T23:19:42.457Z,99.90
2023-05-10T23:22:09.903Z,99.90
2023-05-10T23:24:36.492Z,99.90
2023-05-10T23:27:03.827Z,99.90
2023-05-10T23:29:31.936Z,99.90
2023-05-10T23:31:58.555Z,99.90
2023-05-10T23:34:25.535Z,99.90
2023-05-10T23:36:52.152Z,99.90
2023-05-10T23:39:18.959Z,99.90
2023-05-10T23:41:45.706Z,99.90
2023-05-10T23:44:12.543Z,99.90
2023-05-10T23:46:39.421Z,99.90
2023-05-10T23:49:06.150Z,99.90
2023-05-10T23:51:32.894Z,99.90
2023-05-10T23:53:59.700Z,99.90
2023-05-10T23:56:26.851Z,99.90
2023-05-10T23:58:53.407Z,99.90
